sensor_id;sensor_type;location;lat;lon;timestamp;pressure;altitude;pressure_sealevel;temperature;humidity
27304;BME280;14791;52.392;13.092;2022-07-23T00:00:37;101292.13;;;24.69;43.21
27304;BME280;14791;52.392;13.092;2022-07-23T00:03:06;101287.34;;;24.67;43.28
27304;BME280;14791;52.392;13.092;2022-07-23T00:05:35;101278.47;;;24.65;43.33
27304;BME280;14791;52.392;13.092;2022-07-23T00:08:06;101279.14;;;24.63;43.36
27304;BME280;14791;52.392;13.092;2022-07-23T00:10:35;101291.11;;;24.62;43.33
27304;BME280;14791;52.392;13.092;2022-07-23T00:13:04;101287.34;;;24.63;43.34
27304;BME280;14791;52.392;13.092;2022-07-23T00:15:33;101271.47;;;24.62;43.35
27304;BME280;14791;52.392;13.092;2022-07-23T00:18:02;101280.87;;;24.64;43.35
27304;BME280;14791;52.392;13.092;2022-07-23T00:20:31;101274.05;;;24.64;43.29
27304;BME280;14791;52.392;13.092;2022-07-23T00:23:00;101276.06;;;24.66;43.25
27304;BME280;14791;52.392;13.092;2022-07-23T00:25:29;101275.22;;;24.66;43.23
27304;BME280;14791;52.392;13.092;2022-07-23T00:27:59;101283.24;;;24.63;43.19
27304;BME280;14791;52.392;13.092;2022-07-23T00:30:29;101283.60;;;24.60;43.19
27304;BME280;14791;52.392;13.092;2022-07-23T00:33:04;101278.49;;;24.57;43.23
27304;BME280;14791;52.392;13.092;2022-07-23T00:35:36;101277.45;;;24.54;43.30
27304;BME280;14791;52.392;13.092;2022-07-23T00:38:05;101262.79;;;24.51;43.35
27304;BME280;14791;52.392;13.092;2022-07-23T00:40:34;101268.25;;;24.51;43.32
27304;BME280;14791;52.392;13.092;2022-07-23T00:43:04;101268.25;;;24.51;43.32
27304;BME280;14791;52.392;13.092;2022-07-23T00:45:33;101275.40;;;24.52;43.31
27304;BME280;14791;52.392;13.092;2022-07-23T00:48:02;101279.50;;;24.52;43.26
27304;BME280;14791;52.392;13.092;2022-07-23T00:50:31;101289.73;;;24.54;43.27
27304;BME280;14791;52.392;13.092;2022-07-23T00:53:00;101288.05;;;24.53;43.26
27304;BME280;14791;52.392;13.092;2022-07-23T00:55:29;101282.23;;;24.52;43.27
27304;BME280;14791;52.392;13.092;2022-07-23T00:57:59;101279.17;;;24.51;43.31
27304;BME280;14791;52.392;13.092;2022-07-23T01:00:28;101277.13;;;24.49;43.28
27304;BME280;14791;52.392;13.092;2022-07-23T01:02:57;101274.06;;;24.48;43.28
27304;BME280;14791;52.392;13.092;2022-07-23T01:05:26;101275.08;;;24.47;43.28
27304;BME280;14791;52.392;13.092;2022-07-23T01:07:56;101277.12;;;24.45;43.29
27304;BME280;14791;52.392;13.092;2022-07-23T01:10:25;101276.08;;;24.41;43.31
27304;BME280;14791;52.392;13.092;2022-07-23T01:13:07;101278.48;;;24.40;43.30
27304;BME280;14791;52.392;13.092;2022-07-23T01:15:36;101268.92;;;24.36;43.34
27304;BME280;14791;52.392;13.092;2022-07-23T01:18:06;101267.91;;;24.33;43.35
27304;BME280;14791;52.392;13.092;2022-07-23T01:20:37;101259.38;;;24.28;43.40
27304;BME280;14791;52.392;13.092;2022-07-23T01:23:08;101261.07;;;24.25;43.43
27304;BME280;14791;52.392;13.092;2022-07-23T01:25:49;101258.36;;;24.21;43.47
27304;BME280;14791;52.392;13.092;2022-07-23T01:28:19;101260.05;;;24.18;43.57
27304;BME280;14791;52.392;13.092;2022-07-23T01:30:49;101250.52;;;24.14;43.60
27304;BME280;14791;52.392;13.092;2022-07-23T01:33:18;101258.02;;;24.12;43.63
27304;BME280;14791;52.392;13.092;2022-07-23T01:35:47;101249.15;;;24.10;43.62
27304;BME280;14791;52.392;13.092;2022-07-23T01:38:18;101252.04;;;24.08;43.66
27304;BME280;14791;52.392;13.092;2022-07-23T01:40:47;101245.05;;;24.06;43.67
27304;BME280;14791;52.392;13.092;2022-07-23T01:43:16;101247.09;;;24.04;43.72
27304;BME280;14791;52.392;13.092;2022-07-23T01:45:46;101252.22;;;24.03;43.71
27304;BME280;14791;52.392;13.092;2022-07-23T01:48:15;101260.41;;;24.03;43.75
27304;BME280;14791;52.392;13.092;2022-07-23T01:50:47;101256.66;;;23.99;43.79
27304;BME280;14791;52.392;13.092;2022-07-23T01:53:20;101245.75;;;23.99;43.84
27304;BME280;14791;52.392;13.092;2022-07-23T01:55:49;101249.48;;;23.98;43.89
27304;BME280;14791;52.392;13.092;2022-07-23T01:58:20;101241.48;;;23.97;43.89
27304;BME280;14791;52.392;13.092;2022-07-23T02:00:49;101239.24;;;23.96;43.96
27304;BME280;14791;52.392;13.092;2022-07-23T02:03:18;101228.00;;;23.95;44.02
27304;BME280;14791;52.392;13.092;2022-07-23T02:05:47;101218.61;;;23.94;44.07
27304;BME280;14791;52.392;13.092;2022-07-23T02:08:16;101222.22;;;23.94;44.11
27304;BME280;14791;52.392;13.092;2022-07-23T02:10:45;101224.43;;;23.95;44.07
27304;BME280;14791;52.392;13.092;2022-07-23T02:13:15;101226.31;;;23.94;44.01
27304;BME280;14791;52.392;13.092;2022-07-23T02:15:44;101234.83;;;23.95;44.00
27304;BME280;14791;52.392;13.092;2022-07-23T02:18:14;101230.05;;;23.93;43.98
27304;BME280;14791;52.392;13.092;2022-07-23T02:20:43;101228.00;;;23.91;43.96
27304;BME280;14791;52.392;13.092;2022-07-23T02:23:12;101228.52;;;23.91;43.93
27304;BME280;14791;52.392;13.092;2022-07-23T02:25:41;101231.76;;;23.90;43.93
27304;BME280;14791;52.392;13.092;2022-07-23T02:28:10;101225.62;;;23.88;43.89
27304;BME280;14791;52.392;13.092;2022-07-23T02:30:41;101225.77;;;23.87;43.77
27304;BME280;14791;52.392;13.092;2022-07-23T02:33:10;101234.47;;;23.86;43.69
27304;BME280;14791;52.392;13.092;2022-07-23T02:35:40;101233.79;;;23.84;43.59
27304;BME280;14791;52.392;13.092;2022-07-23T02:38:09;101240.95;;;23.81;43.61
27304;BME280;14791;52.392;13.092;2022-07-23T02:40:38;101243.35;;;23.80;43.61
27304;BME280;14791;52.392;13.092;2022-07-23T02:43:07;101238.73;;;23.76;43.65
27304;BME280;14791;52.392;13.092;2022-07-23T02:45:36;101236.68;;;23.74;43.70
27304;BME280;14791;52.392;13.092;2022-07-23T02:48:05;101242.13;;;23.74;43.66
27304;BME280;14791;52.392;13.092;2022-07-23T02:50:34;101240.25;;;23.75;43.65
27304;BME280;14791;52.392;13.092;2022-07-23T02:53:04;101235.31;;;23.74;43.66
27304;BME280;14791;52.392;13.092;2022-07-23T02:55:33;101230.37;;;23.74;43.68
27304;BME280;14791;52.392;13.092;2022-07-23T02:58:02;101231.38;;;23.73;43.70
27304;BME280;14791;52.392;13.092;2022-07-23T03:00:31;101236.84;;;23.73;43.70
27304;BME280;14791;52.392;13.092;2022-07-23T03:03:00;101239.56;;;23.73;43.69
27304;BME280;14791;52.392;13.092;2022-07-23T03:05:29;101239.20;;;23.72;43.67
27304;BME280;14791;52.392;13.092;2022-07-23T03:07:58;101233.75;;;23.72;43.66
27304;BME280;14791;52.392;13.092;2022-07-23T03:10:27;101229.81;;;23.70;43.68
27304;BME280;14791;52.392;13.092;2022-07-23T03:12:56;101242.27;;;23.69;43.63
27304;BME280;14791;52.392;13.092;2022-07-23T03:15:25;101240.89;;;23.65;43.62
27304;BME280;14791;52.392;13.092;2022-07-23T03:17:55;101249.06;;;23.61;43.65
27304;BME280;14791;52.392;13.092;2022-07-23T03:20:24;101258.62;;;23.56;43.71
27304;BME280;14791;52.392;13.092;2022-07-23T03:22:54;101264.89;;;23.53;43.77
27304;BME280;14791;52.392;13.092;2022-07-23T03:25:23;101274.78;;;23.50;43.86
27304;BME280;14791;52.392;13.092;2022-07-23T03:27:52;101284.14;;;23.47;43.94
27304;BME280;14791;52.392;13.092;2022-07-23T03:30:21;101284.48;;;23.44;44.00
27304;BME280;14791;52.392;13.092;2022-07-23T03:32:50;101281.73;;;23.40;44.05
27304;BME280;14791;52.392;13.092;2022-07-23T03:35:19;101295.70;;;23.41;44.13
27304;BME280;14791;52.392;13.092;2022-07-23T03:37:53;101317.17;;;23.40;44.17
27304;BME280;14791;52.392;13.092;2022-07-23T03:40:22;101324.98;;;23.39;44.12
27304;BME280;14791;52.392;13.092;2022-07-23T03:42:51;101330.80;;;23.40;44.00
27304;BME280;14791;52.392;13.092;2022-07-23T03:45:19;101321.60;;;23.37;43.88
27304;BME280;14791;52.392;13.092;2022-07-23T03:47:48;101305.40;;;23.35;43.89
27304;BME280;14791;52.392;13.092;2022-07-23T03:50:18;101291.44;;;23.34;44.16
27304;BME280;14791;52.392;13.092;2022-07-23T03:52:47;101291.25;;;23.36;44.53
27304;BME280;14791;52.392;13.092;2022-07-23T03:55:16;101266.39;;;23.35;44.55
27304;BME280;14791;52.392;13.092;2022-07-23T03:57:46;101286.14;;;23.33;44.47
27304;BME280;14791;52.392;13.092;2022-07-23T04:00:15;101262.62;;;23.28;44.53
27304;BME280;14791;52.392;13.092;2022-07-23T04:02:45;101264.63;;;23.22;44.75
27304;BME280;14791;52.392;13.092;2022-07-23T04:05:13;101280.47;;;23.18;44.79
27304;BME280;14791;52.392;13.092;2022-07-23T04:07:43;101251.50;;;23.13;44.69
27304;BME280;14791;52.392;13.092;2022-07-23T04:10:12;101261.53;;;23.08;45.36
27304;BME280;14791;52.392;13.092;2022-07-23T04:12:41;101255.90;;;23.06;46.16
27304;BME280;14791;52.392;13.092;2022-07-23T04:15:10;101239.69;;;23.00;46.84
27304;BME280;14791;52.392;13.092;2022-07-23T04:17:39;101222.25;;;22.93;46.77
27304;BME280;14791;52.392;13.092;2022-07-23T04:20:09;101245.05;;;22.88;46.85
27304;BME280;14791;52.392;13.092;2022-07-23T04:22:40;101278.18;;;22.79;47.11
27304;BME280;14791;52.392;13.092;2022-07-23T04:25:09;101273.55;;;22.67;46.90
27304;BME280;14791;52.392;13.092;2022-07-23T04:27:38;101262.06;;;22.56;47.32
27304;BME280;14791;52.392;13.092;2022-07-23T04:30:08;101267.58;;;22.42;47.58
27304;BME280;14791;52.392;13.092;2022-07-23T04:32:37;101288.56;;;22.27;48.10
27304;BME280;14791;52.392;13.092;2022-07-23T04:35:08;101299.30;;;22.15;48.34
27304;BME280;14791;52.392;13.092;2022-07-23T04:37:37;101316.20;;;22.05;49.05
27304;BME280;14791;52.392;13.092;2022-07-23T04:40:07;101323.12;;;21.99;48.65
27304;BME280;14791;52.392;13.092;2022-07-23T04:42:36;101307.58;;;21.92;48.94
27304;BME280;14791;52.392;13.092;2022-07-23T04:45:06;101300.73;;;21.87;49.66
27304;BME280;14791;52.392;13.092;2022-07-23T04:47:35;101278.13;;;21.87;49.78
27304;BME280;14791;52.392;13.092;2022-07-23T04:50:04;101270.83;;;21.87;49.99
27304;BME280;14791;52.392;13.092;2022-07-23T04:52:35;101276.27;;;21.87;50.01
27304;BME280;14791;52.392;13.092;2022-07-23T04:55:05;101290.70;;;21.88;50.08
27304;BME280;14791;52.392;13.092;2022-07-23T04:57:35;101283.25;;;21.90;50.39
27304;BME280;14791;52.392;13.092;2022-07-23T05:00:05;101269.52;;;21.92;50.67
27304;BME280;14791;52.392;13.092;2022-07-23T05:02:34;101273.78;;;21.94;50.63
27304;BME280;14791;52.392;13.092;2022-07-23T05:05:03;101277.72;;;21.96;50.59
27304;BME280;14791;52.392;13.092;2022-07-23T05:07:32;101283.34;;;21.98;50.88
27304;BME280;14791;52.392;13.092;2022-07-23T05:10:01;101279.09;;;22.00;50.97
27304;BME280;14791;52.392;13.092;2022-07-23T05:12:30;101259.91;;;22.01;51.09
27304;BME280;14791;52.392;13.092;2022-07-23T05:15:00;101256.53;;;22.03;51.08
27304;BME280;14791;52.392;13.092;2022-07-23T05:17:29;101273.70;;;22.04;51.13
27304;BME280;14791;52.392;13.092;2022-07-23T05:19:58;101280.83;;;22.05;51.07
27304;BME280;14791;52.392;13.092;2022-07-23T05:22:28;101271.68;;;22.06;51.27
27304;BME280;14791;52.392;13.092;2022-07-23T05:24:57;101284.26;;;22.07;51.25
27304;BME280;14791;52.392;13.092;2022-07-23T05:27:26;101294.29;;;22.06;51.13
27304;BME280;14791;52.392;13.092;2022-07-23T05:29:56;101300.24;;;22.06;51.11
27304;BME280;14791;52.392;13.092;2022-07-23T05:32:25;101288.99;;;22.05;51.44
27304;BME280;14791;52.392;13.092;2022-07-23T05:34:58;101289.70;;;22.07;51.70
27304;BME280;14791;52.392;13.092;2022-07-23T05:37:27;101300.58;;;22.07;51.62
27304;BME280;14791;52.392;13.092;2022-07-23T05:39:59;101303.48;;;22.09;51.78
27304;BME280;14791;52.392;13.092;2022-07-23T05:42:26;101312.20;;;22.13;51.84
27304;BME280;14791;52.392;13.092;2022-07-23T05:44:55;101321.07;;;22.15;51.54
27304;BME280;14791;52.392;13.092;2022-07-23T05:47:24;101320.75;;;22.18;51.62
27304;BME280;14791;52.392;13.092;2022-07-23T05:49:53;101324.69;;;22.20;51.65
27304;BME280;14791;52.392;13.092;2022-07-23T05:52:26;101315.39;;;22.22;51.84
27304;BME280;14791;52.392;13.092;2022-07-23T05:55:00;101297.19;;;22.23;52.00
27304;BME280;14791;52.392;13.092;2022-07-23T05:57:29;101278.84;;;22.25;52.15
27304;BME280;14791;52.392;13.092;2022-07-23T05:59:57;101271.53;;;22.25;52.16
27304;BME280;14791;52.392;13.092;2022-07-23T06:02:27;101281.09;;;22.29;52.50
27304;BME280;14791;52.392;13.092;2022-07-23T06:04:56;101282.13;;;22.33;52.49
27304;BME280;14791;52.392;13.092;2022-07-23T06:07:29;101288.09;;;22.36;52.29
27304;BME280;14791;52.392;13.092;2022-07-23T06:09:59;101288.97;;;22.37;52.18
27304;BME280;14791;52.392;13.092;2022-07-23T06:12:28;101291.04;;;22.39;52.06
27304;BME280;14791;52.392;13.092;2022-07-23T06:14:57;101294.09;;;22.40;52.18
27304;BME280;14791;52.392;13.092;2022-07-23T06:17:27;101294.42;;;22.41;52.04
27304;BME280;14791;52.392;13.092;2022-07-23T06:19:56;101295.49;;;22.44;52.11
27304;BME280;14791;52.392;13.092;2022-07-23T06:22:25;101290.23;;;22.46;52.24
27304;BME280;14791;52.392;13.092;2022-07-23T06:24:54;101274.42;;;22.50;52.12
27304;BME280;14791;52.392;13.092;2022-07-23T06:27:23;101282.12;;;22.55;52.05
27304;BME280;14791;52.392;13.092;2022-07-23T06:29:52;101273.29;;;22.57;51.77
27304;BME280;14791;52.392;13.092;2022-07-23T06:32:22;101271.45;;;22.61;51.55
27304;BME280;14791;52.392;13.092;2022-07-23T06:34:51;101265.67;;;22.64;51.30
27304;BME280;14791;52.392;13.092;2022-07-23T06:37:21;101257.20;;;22.67;51.24
27304;BME280;14791;52.392;13.092;2022-07-23T06:39:50;101252.42;;;22.69;51.26
27304;BME280;14791;52.392;13.092;2022-07-23T06:42:19;101248.38;;;22.73;51.08
27304;BME280;14791;52.392;13.092;2022-07-23T06:44:50;101245.98;;;22.75;51.17
27304;BME280;14791;52.392;13.092;2022-07-23T06:47:18;101241.59;;;22.78;51.12
27304;BME280;14791;52.392;13.092;2022-07-23T06:49:47;101262.36;;;22.79;51.14
27304;BME280;14791;52.392;13.092;2022-07-23T06:52:17;101273.94;;;22.81;51.15
27304;BME280;14791;52.392;13.092;2022-07-23T06:54:46;101276.00;;;22.83;50.95
27304;BME280;14791;52.392;13.092;2022-07-23T06:57:15;101292.01;;;22.86;50.86
27304;BME280;14791;52.392;13.092;2022-07-23T06:59:44;101294.58;;;22.87;50.70
27304;BME280;14791;52.392;13.092;2022-07-23T07:02:13;101301.06;;;22.90;50.91
27304;BME280;14791;52.392;13.092;2022-07-23T07:04:42;101297.83;;;22.91;50.87
27304;BME280;14791;52.392;13.092;2022-07-23T07:07:11;101304.81;;;22.93;50.99
27304;BME280;14791;52.392;13.092;2022-07-23T07:09:40;101318.61;;;22.96;50.91
27304;BME280;14791;52.392;13.092;2022-07-23T07:12:09;101311.54;;;22.99;50.81
27304;BME280;14791;52.392;13.092;2022-07-23T07:14:39;101310.50;;;23.00;50.90
27304;BME280;14791;52.392;13.092;2022-07-23T07:17:08;101305.76;;;23.02;50.87
27304;BME280;14791;52.392;13.092;2022-07-23T07:19:38;101309.03;;;23.06;50.79
27304;BME280;14791;52.392;13.092;2022-07-23T07:22:07;101299.67;;;23.08;50.87
27304;BME280;14791;52.392;13.092;2022-07-23T07:24:36;101305.12;;;23.12;50.76
27304;BME280;14791;52.392;13.092;2022-07-23T07:27:05;101300.73;;;23.16;50.64
27304;BME280;14791;52.392;13.092;2022-07-23T07:29:34;101300.21;;;23.16;50.65
27304;BME280;14791;52.392;13.092;2022-07-23T07:32:03;101292.55;;;23.16;50.45
27304;BME280;14791;52.392;13.092;2022-07-23T07:34:32;101294.94;;;23.19;50.33
27304;BME280;14791;52.392;13.092;2022-07-23T07:37:01;101299.72;;;23.21;50.23
27304;BME280;14791;52.392;13.092;2022-07-23T07:39:30;101295.63;;;23.25;50.31
27304;BME280;14791;52.392;13.092;2022-07-23T07:41:59;101271.31;;;23.27;50.57
27304;BME280;14791;52.392;13.092;2022-07-23T07:44:27;101274.05;;;23.35;50.82
27304;BME280;14791;52.392;13.092;2022-07-23T07:46:56;101265.73;;;23.45;51.04
27304;BME280;14791;52.392;13.092;2022-07-23T07:49:25;101260.50;;;23.56;51.46
27304;BME280;14791;52.392;13.092;2022-07-23T07:51:54;101260.69;;;23.71;51.75
27304;BME280;14791;52.392;13.092;2022-07-23T07:54:23;101273.02;;;23.87;51.17
27304;BME280;14791;52.392;13.092;2022-07-23T07:56:52;101282.23;;;24.03;50.95
27304;BME280;14791;52.392;13.092;2022-07-23T07:59:21;101286.50;;;24.17;50.54
27304;BME280;14791;52.392;13.092;2022-07-23T08:01:50;101276.94;;;24.30;50.29
27304;BME280;14791;52.392;13.092;2022-07-23T08:04:18;101276.75;;;24.39;50.08
27304;BME280;14791;52.392;13.092;2022-07-23T08:06:47;101276.08;;;24.46;50.07
27304;BME280;14791;52.392;13.092;2022-07-23T08:09:16;101277.13;;;24.53;49.86
27304;BME280;14791;52.392;13.092;2022-07-23T08:11:45;101269.95;;;24.60;49.83
27304;BME280;14791;52.392;13.092;2022-07-23T08:14:14;101273.84;;;24.70;49.68
27304;BME280;14791;52.392;13.092;2022-07-23T08:16:43;101279.44;;;24.80;49.36
27304;BME280;14791;52.392;13.092;2022-07-23T08:19:12;101274.98;;;24.88;49.23
27304;BME280;14791;52.392;13.092;2022-07-23T08:21:41;101280.08;;;24.95;49.16
27304;BME280;14791;52.392;13.092;2022-07-23T08:24:09;101274.25;;;25.02;49.17
27304;BME280;14791;52.392;13.092;2022-07-23T08:26:38;101279.86;;;25.13;48.83
27304;BME280;14791;52.392;13.092;2022-07-23T08:29:08;101276.95;;;25.22;48.60
27304;BME280;14791;52.392;13.092;2022-07-23T08:31:37;101283.73;;;25.31;48.49
27304;BME280;14791;52.392;13.092;2022-07-23T08:34:08;101283.36;;;25.38;48.38
27304;BME280;14791;52.392;13.092;2022-07-23T08:36:36;101284.01;;;25.48;48.25
27304;BME280;14791;52.392;13.092;2022-07-23T08:39:05;101282.94;;;25.57;48.00
27304;BME280;14791;52.392;13.092;2022-07-23T08:41:34;101277.72;;;25.66;47.79
27304;BME280;14791;52.392;13.092;2022-07-23T08:44:07;101277.34;;;25.74;47.66
27304;BME280;14791;52.392;13.092;2022-07-23T08:46:37;101266.67;;;25.83;47.46
27304;BME280;14791;52.392;13.092;2022-07-23T08:49:07;101263.63;;;25.86;47.36
27304;BME280;14791;52.392;13.092;2022-07-23T08:51:36;101271.27;;;25.91;47.16
27304;BME280;14791;52.392;13.092;2022-07-23T08:54:05;101284.77;;;25.92;46.90
27304;BME280;14791;52.392;13.092;2022-07-23T08:56:35;101288.88;;;25.92;46.89
27304;BME280;14791;52.392;13.092;2022-07-23T08:59:04;101296.77;;;25.91;46.56
27304;BME280;14791;52.392;13.092;2022-07-23T09:01:33;101294.03;;;25.91;46.65
27304;BME280;14791;52.392;13.092;2022-07-23T09:04:02;101291.61;;;25.92;46.51
27304;BME280;14791;52.392;13.092;2022-07-23T09:06:31;101295.70;;;25.96;46.38
27304;BME280;14791;52.392;13.092;2022-07-23T09:09:11;101300.42;;;26.02;46.32
27304;BME280;14791;52.392;13.092;2022-07-23T09:11:32;101302.45;;;26.08;46.17
27304;BME280;14791;52.392;13.092;2022-07-23T09:14:00;101303.80;;;26.13;46.01
27304;BME280;14791;52.392;13.092;2022-07-23T09:16:31;101306.16;;;26.16;45.72
27304;BME280;14791;52.392;13.092;2022-07-23T09:19:02;101312.68;;;26.15;45.53
27304;BME280;14791;52.392;13.092;2022-07-23T09:21:36;101314.74;;;26.13;45.51
27304;BME280;14791;52.392;13.092;2022-07-23T09:24:12;101320.39;;;26.11;45.55
27304;BME280;14791;52.392;13.092;2022-07-23T09:29:16;101320.56;;;26.09;45.56
27304;BME280;14791;52.392;13.092;2022-07-23T09:31:50;101327.06;;;26.13;45.40
27304;BME280;14791;52.392;13.092;2022-07-23T09:34:32;101316.44;;;26.14;45.40
27304;BME280;14791;52.392;13.092;2022-07-23T09:37:13;101308.37;;;26.16;45.46
27304;BME280;14791;52.392;13.092;2022-07-23T09:39:44;101312.63;;;26.19;45.29
27304;BME280;14791;52.392;13.092;2022-07-23T09:44:47;101324.84;;;26.31;45.49
27304;BME280;14791;52.392;13.092;2022-07-23T09:47:17;101319.31;;;26.39;45.58
27304;BME280;14791;52.392;13.092;2022-07-23T09:50:00;101327.41;;;26.51;45.51
27304;BME280;14791;52.392;13.092;2022-07-23T09:52:33;101325.58;;;26.67;45.00
27304;BME280;14791;52.392;13.092;2022-07-23T09:55:05;101327.55;;;26.77;44.59
27304;BME280;14791;52.392;13.092;2022-07-23T09:57:34;101329.31;;;26.89;44.21
27304;BME280;14791;52.392;13.092;2022-07-23T10:00:05;101321.17;;;26.95;44.05
27304;BME280;14791;52.392;13.092;2022-07-23T10:02:36;101324.54;;;27.02;43.81
27304;BME280;14791;52.392;13.092;2022-07-23T10:05:12;101325.88;;;27.06;43.54
27304;BME280;14791;52.392;13.092;2022-07-23T10:07:53;101321.02;;;27.08;43.45
27304;BME280;14791;52.392;13.092;2022-07-23T10:10:41;101323.77;;;27.08;43.22
27304;BME280;14791;52.392;13.092;2022-07-23T10:13:12;101325.88;;;27.06;43.21
27304;BME280;14791;52.392;13.092;2022-07-23T10:15:51;101333.36;;;27.08;43.09
27304;BME280;14791;52.392;13.092;2022-07-23T10:18:19;101338.98;;;27.10;43.11
27304;BME280;14791;52.392;13.092;2022-07-23T10:20:49;101335.68;;;27.15;42.87
27304;BME280;14791;52.392;13.092;2022-07-23T10:23:30;101333.95;;;27.18;42.73
27304;BME280;14791;52.392;13.092;2022-07-23T10:26:17;101330.54;;;27.20;42.64
27304;BME280;14791;52.392;13.092;2022-07-23T10:36:54;101332.20;;;27.06;42.17
27304;BME280;14791;52.392;13.092;2022-07-23T10:39:32;101340.46;;;27.02;42.37
27304;BME280;14791;52.392;13.092;2022-07-23T10:42:12;101337.02;;;27.04;42.29
27304;BME280;14791;52.392;13.092;2022-07-23T10:44:46;101335.47;;;27.06;42.47
27304;BME280;14791;52.392;13.092;2022-07-23T10:47:30;101329.73;;;27.11;42.35
27304;BME280;14791;52.392;13.092;2022-07-23T10:50:26;101336.52;;;27.20;42.27
27304;BME280;14791;52.392;13.092;2022-07-23T10:53:12;101333.55;;;27.25;42.47
27304;BME280;14791;52.392;13.092;2022-07-23T10:55:49;101336.53;;;27.34;42.25
27304;BME280;14791;52.392;13.092;2022-07-23T11:00:50;101347.61;;;27.52;41.75
27304;BME280;14791;52.392;13.092;2022-07-23T11:03:31;101342.53;;;27.60;41.47
27304;BME280;14791;52.392;13.092;2022-07-23T11:06:03;101340.19;;;27.67;41.38
27304;BME280;14791;52.392;13.092;2022-07-23T11:08:32;101339.75;;;27.74;41.37
27304;BME280;14791;52.392;13.092;2022-07-23T11:13:44;101340.92;;;27.91;41.05
27304;BME280;14791;52.392;13.092;2022-07-23T11:16:13;101336.67;;;27.99;40.79
27304;BME280;14791;52.392;13.092;2022-07-23T11:24:17;101334.55;;;28.16;40.30
27304;BME280;14791;52.392;13.092;2022-07-23T11:26:43;101336.36;;;28.19;40.40
27304;BME280;14791;52.392;13.092;2022-07-23T11:32:22;101333.81;;;28.29;40.62
27304;BME280;14791;52.392;13.092;2022-07-23T11:34:51;101327.80;;;28.40;40.67
27304;BME280;14791;52.392;13.092;2022-07-23T11:40:00;101329.25;;;28.75;40.20
27304;BME280;14791;52.392;13.092;2022-07-23T11:42:29;101331.70;;;28.91;40.25
27304;BME280;14791;52.392;13.092;2022-07-23T11:44:58;101326.08;;;29.06;39.76
27304;BME280;14791;52.392;13.092;2022-07-23T11:47:27;101320.89;;;29.18;39.41
27304;BME280;14791;52.392;13.092;2022-07-23T11:49:58;101323.07;;;29.29;39.28
27304;BME280;14791;52.392;13.092;2022-07-23T11:52:28;101323.11;;;29.36;39.05
27304;BME280;14791;52.392;13.092;2022-07-23T11:55:00;101313.17;;;29.41;38.76
27304;BME280;14791;52.392;13.092;2022-07-23T11:57:32;101326.32;;;29.46;38.48
27304;BME280;14791;52.392;13.092;2022-07-23T12:02:43;101315.54;;;29.51;38.25
27304;BME280;14791;52.392;13.092;2022-07-23T12:05:21;101316.50;;;29.54;38.25
27304;BME280;14791;52.392;13.092;2022-07-23T12:07:45;101318.97;;;29.60;38.13
27304;BME280;14791;52.392;13.092;2022-07-23T12:10:28;101319.50;;;29.66;38.02
27304;BME280;14791;52.392;13.092;2022-07-23T12:13:08;101315.63;;;29.71;37.84
27304;BME280;14791;52.392;13.092;2022-07-23T12:15:34;101314.17;;;29.75;37.78
27304;BME280;14791;52.392;13.092;2022-07-23T12:18:07;101317.03;;;29.78;37.58
27304;BME280;14791;52.392;13.092;2022-07-23T12:20:41;101310.91;;;29.82;37.44
27304;BME280;14791;52.392;13.092;2022-07-23T12:23:13;101311.58;;;29.91;37.51
27304;BME280;14791;52.392;13.092;2022-07-23T12:25:44;101321.03;;;30.13;37.44
27304;BME280;14791;52.392;13.092;2022-07-23T12:28:21;101317.70;;;30.44;37.28
27304;BME280;14791;52.392;13.092;2022-07-23T12:30:53;101314.48;;;30.73;36.76
27304;BME280;14791;52.392;13.092;2022-07-23T12:33:28;101319.03;;;30.97;36.31
27304;BME280;14791;52.392;13.092;2022-07-23T12:35:59;101307.11;;;31.10;35.87
27304;BME280;14791;52.392;13.092;2022-07-23T12:38:36;101309.31;;;31.17;35.60
27304;BME280;14791;52.392;13.092;2022-07-23T12:41:00;101312.77;;;31.35;35.54
27304;BME280;14791;52.392;13.092;2022-07-23T12:43:31;101314.06;;;31.62;35.35
27304;BME280;14791;52.392;13.092;2022-07-23T12:46:14;101310.27;;;31.94;35.34
27304;BME280;14791;52.392;13.092;2022-07-23T12:48:52;101309.77;;;32.36;34.85
27304;BME280;14791;52.392;13.092;2022-07-23T12:51:29;101309.64;;;32.65;34.42
27304;BME280;14791;52.392;13.092;2022-07-23T12:54:05;101309.13;;;32.84;34.14
27304;BME280;14791;52.392;13.092;2022-07-23T12:56:36;101311.89;;;33.09;33.65
27304;BME280;14791;52.392;13.092;2022-07-23T12:59:08;101310.40;;;33.43;33.46
27304;BME280;14791;52.392;13.092;2022-07-23T13:01:44;101313.02;;;33.87;33.10
27304;BME280;14791;52.392;13.092;2022-07-23T13:04:19;101311.01;;;34.36;32.65
27304;BME280;14791;52.392;13.092;2022-07-23T13:06:57;101306.88;;;34.83;32.24
27304;BME280;14791;52.392;13.092;2022-07-23T13:09:28;101318.06;;;35.24;31.40
27304;BME280;14791;52.392;13.092;2022-07-23T13:11:59;101303.92;;;35.51;30.95
27304;BME280;14791;52.392;13.092;2022-07-23T13:14:28;101307.48;;;35.75;30.22
27304;BME280;14791;52.392;13.092;2022-07-23T13:16:57;101303.47;;;36.00;29.87
27304;BME280;14791;52.392;13.092;2022-07-23T13:19:26;101307.26;;;36.25;29.41
27304;BME280;14791;52.392;13.092;2022-07-23T13:21:55;101316.78;;;36.46;29.18
27304;BME280;14791;52.392;13.092;2022-07-23T13:24:24;101326.30;;;36.65;28.84
27304;BME280;14791;52.392;13.092;2022-07-23T13:26:53;101313.98;;;36.60;28.50
27304;BME280;14791;52.392;13.092;2022-07-23T13:29:23;101309.20;;;36.41;28.15